createdAt,value
2018-04-30T00:01:17.341Z,85.02
2018-04-30T00:03:45.637Z,85.57
2018-04-30T00:06:14.013Z,85.41
2018-04-30T00:08:42.357Z,85.48
2018-04-30T00:11:10.694Z,85.26
2018-04-30T00:13:38.988Z,85.27
2018-04-30T00:16:07.274Z,85.42
2018-04-30T00:18:35.546Z,85.69
2018-04-30T00:21:04.598Z,85.44
2018-04-30T00:23:32.863Z,85.22
2018-04-30T00:26:01.363Z,85.58
2018-04-30T00:28:29.619Z,85.28
2018-04-30T00:30:58.756Z,85.17
2018-04-30T00:33:27.014Z,85.81
2018-04-30T00:35:56.158Z,85.79
2018-04-30T00:38:24.404Z,85.26
2018-04-30T00:40:52.740Z,85.15
2018-04-30T00:43:21.026Z,85.07
2018-04-30T00:45:49.317Z,84.75
2018-04-30T00:48:18.331Z,85.15
2018-04-30T00:50:46.701Z,85.13
2018-04-30T00:53:15.746Z,85.12
2018-04-30T00:55:44.114Z,85.49
2018-04-30T00:58:12.390Z,85.46
2018-04-30T01:00:41.508Z,85.45
2018-04-30T01:03:10.554Z,85.18
2018-04-30T01:05:38.846Z,85.49
2018-04-30T01:08:07.103Z,86.11
2018-04-30T01:10:35.384Z,85.84
2018-04-30T01:13:04.487Z,85.36
2018-04-30T01:15:33.617Z,85.61
2018-04-30T01:18:01.874Z,85.58
2018-04-30T01:20:31.096Z,85.69
2018-04-30T01:23:00.227Z,85.28
2018-04-30T01:25:28.484Z,85.56
2018-04-30T01:27:57.527Z,85.53
2018-04-30T01:30:25.909Z,85.67
2018-04-30T01:32:54.206Z,85.68
2018-04-30T01:35:22.484Z,85.77
2018-04-30T01:37:50.757Z,86.03
2018-04-30T01:40:19.018Z,86.18
2018-04-30T01:42:47.287Z,85.88
2018-04-30T01:45:15.575Z,85.84
2018-04-30T01:47:43.846Z,85.34
2018-04-30T01:50:12.135Z,85.29
2018-04-30T01:52:40.393Z,85.23
2018-04-30T01:55:09.443Z,85.45
2018-04-30T01:57:37.908Z,85.26
2018-04-30T02:00:06.196Z,85.64
2018-04-30T02:02:35.416Z,85.82
2018-04-30T02:05:04.561Z,85.84
2018-04-30T02:07:32.820Z,85.78
2018-04-30T02:10:04.083Z,85.95
2018-04-30T02:12:32.484Z,85.59
2018-04-30T02:15:01.519Z,85.95
2018-04-30T02:17:29.883Z,85.24
2018-04-30T02:19:58.168Z,85.13
2018-04-30T02:22:26.463Z,85.18
2018-04-30T02:24:55.486Z,85.49
2018-04-30T02:27:23.752Z,85.43
2018-04-30T02:29:52.775Z,85.29
2018-04-30T02:32:21.032Z,85.41
2018-04-30T02:34:50.081Z,85.54
2018-04-30T02:37:18.425Z,85.62
2018-04-30T02:39:46.646Z,85.36
2018-04-30T02:42:15.667Z,85.13
2018-04-30T02:44:43.946Z,85.33
2018-04-30T02:47:12.240Z,85.37
2018-04-30T02:49:40.537Z,85.79
2018-04-30T02:52:08.818Z,85.48
2018-04-30T02:54:37.089Z,85.69
2018-04-30T02:57:05.393Z,85.50
2018-04-30T02:59:34.407Z,85.69
2018-04-30T03:02:02.687Z,85.38
2018-04-30T03:04:31.735Z,85.41
2018-04-30T03:07:00.013Z,85.53
2018-04-30T03:09:28.268Z,85.01
2018-04-30T03:11:57.323Z,85.24
2018-04-30T03:14:25.600Z,85.38
2018-04-30T03:16:53.868Z,85.13
2018-04-30T03:19:22.899Z,85.32
2018-04-30T03:21:51.151Z,85.47
2018-04-30T03:24:20.189Z,85.52
2018-04-30T03:26:48.569Z,85.43
2018-04-30T03:29:16.841Z,85.64
2018-04-30T03:31:45.866Z,85.52
2018-04-30T03:34:14.139Z,85.28
2018-04-30T03:36:43.239Z,85.47
2018-04-30T03:39:11.470Z,85.31
2018-04-30T03:41:39.800Z,85.52
2018-04-30T03:44:08.058Z,85.82
2018-04-30T03:46:36.426Z,86.06
2018-04-30T03:49:05.467Z,86.18
2018-04-30T03:51:33.724Z,86.24
2018-04-30T03:54:02.068Z,86.19
2018-04-30T03:56:30.260Z,86.24
2018-04-30T03:58:58.545Z,85.96
2018-04-30T04:01:44.472Z,86.18
2018-04-30T04:04:30.445Z,86.31
2018-04-30T04:06:58.716Z,86.35
2018-04-30T04:09:26.971Z,85.79
2018-04-30T04:11:55.992Z,85.86
2018-04-30T04:14:24.347Z,86.03
2018-04-30T04:16:52.609Z,85.83
2018-04-30T04:19:20.872Z,85.85
2018-04-30T04:21:49.135Z,85.83
2018-04-30T04:24:18.179Z,86.05
2018-04-30T04:26:46.560Z,85.94
2018-04-30T04:29:14.916Z,86.08
2018-04-30T04:31:43.958Z,85.96
2018-04-30T04:34:12.975Z,85.81
2018-04-30T04:36:41.267Z,86.03
2018-04-30T04:39:09.553Z,86.08
2018-04-30T04:41:37.903Z,85.79
2018-04-30T04:44:06.359Z,85.58
2018-04-30T04:46:34.735Z,85.81
2018-04-30T04:49:03.222Z,85.38
2018-04-30T04:51:31.490Z,85.50
2018-04-30T04:54:00.529Z,85.58
2018-04-30T04:56:28.783Z,85.38
2018-04-30T04:58:57.828Z,85.64
2018-04-30T05:01:26.119Z,85.77
2018-04-30T05:03:54.397Z,85.83
2018-04-30T05:06:23.411Z,85.63
2018-04-30T05:08:51.735Z,85.59
2018-04-30T05:11:20.047Z,85.23
2018-04-30T05:13:48.315Z,85.05
2018-04-30T05:16:16.638Z,84.64
2018-04-30T05:18:44.959Z,84.30
2018-04-30T05:21:13.264Z,83.52
2018-04-30T05:23:41.543Z,83.48
2018-04-30T05:26:10.631Z,83.55
2018-04-30T05:28:39.719Z,82.55
2018-04-30T05:31:08.155Z,82.06
2018-04-30T05:33:36.421Z,82.42
2018-04-30T05:36:05.499Z,82.21
2018-04-30T05:38:33.758Z,81.70
2018-04-30T05:41:02.018Z,81.68
2018-04-30T05:43:31.076Z,82.08
2018-04-30T05:45:59.325Z,81.75
2018-04-30T05:48:27.589Z,81.49
2018-04-30T05:50:56.015Z,82.00
2018-04-30T05:53:24.302Z,82.16
2018-04-30T05:55:52.555Z,81.76
2018-04-30T05:58:21.602Z,81.60
2018-04-30T06:00:49.893Z,81.24
2018-04-30T06:03:18.136Z,81.55
2018-04-30T06:05:47.169Z,81.75
2018-04-30T06:08:16.204Z,82.26
2018-04-30T06:10:44.471Z,82.25
2018-04-30T06:13:13.507Z,82.32
2018-04-30T06:15:41.763Z,82.51
2018-04-30T06:18:10.893Z,82.55
2018-04-30T06:20:39.296Z,82.88
2018-04-30T06:23:07.587Z,83.16
2018-04-30T06:25:35.865Z,82.74
2018-04-30T06:28:04.153Z,82.42
2018-04-30T06:30:33.265Z,81.54
2018-04-30T06:33:01.520Z,82.21
2018-04-30T06:35:29.789Z,81.49
2018-04-30T06:37:58.153Z,80.73
2018-04-30T06:40:26.411Z,81.14
2018-04-30T06:42:55.451Z,81.68
2018-04-30T06:45:23.706Z,83.04
2018-04-30T06:47:52.728Z,83.82
2018-04-30T06:50:20.983Z,83.40
2018-04-30T06:52:49.254Z,83.39
2018-04-30T06:55:17.914Z,82.53
2018-04-30T06:57:46.191Z,83.56
2018-04-30T07:00:15.325Z,82.09
2018-04-30T07:02:44.339Z,82.45
2018-04-30T07:05:12.716Z,82.19
2018-04-30T07:07:40.983Z,82.46
2018-04-30T07:10:10.005Z,82.51
2018-04-30T07:12:38.319Z,81.80
2018-04-30T07:15:06.812Z,82.05
2018-04-30T07:17:35.186Z,81.83
2018-04-30T07:20:03.488Z,81.27
2018-04-30T07:22:32.501Z,81.74
2018-04-30T07:25:00.737Z,82.57
2018-04-30T07:27:29.114Z,82.43
2018-04-30T07:29:57.314Z,82.51
2018-04-30T07:32:25.605Z,83.00
2018-04-30T07:34:53.924Z,83.46
2018-04-30T07:37:22.941Z,83.86
2018-04-30T07:39:51.251Z,83.89
2018-04-30T07:42:19.529Z,84.08
2018-04-30T07:44:47.775Z,83.87
2018-04-30T07:47:16.046Z,83.66
2018-04-30T07:49:44.327Z,82.69
2018-04-30T07:52:12.580Z,82.33
2018-04-30T07:54:40.869Z,82.42
2018-04-30T07:57:10.006Z,81.42
2018-04-30T07:59:38.275Z,81.16
2018-04-30T08:02:06.569Z,82.04
2018-04-30T08:04:34.958Z,82.11
2018-04-30T08:07:03.246Z,81.24
2018-04-30T08:09:31.492Z,78.53
2018-04-30T08:11:59.764Z,78.55
2018-04-30T08:14:28.117Z,79.23
2018-04-30T08:16:57.230Z,79.14
2018-04-30T08:19:25.573Z,78.36
2018-04-30T08:21:54.092Z,76.85
2018-04-30T08:24:23.122Z,77.77
2018-04-30T08:26:52.207Z,76.90
2018-04-30T08:29:20.453Z,75.88
2018-04-30T08:31:48.699Z,75.98
2018-04-30T08:34:16.963Z,75.31
2018-04-30T08:36:46.090Z,75.90
2018-04-30T08:39:14.271Z,76.14
2018-04-30T08:41:43.399Z,75.68
2018-04-30T08:44:12.542Z,72.52
2018-04-30T08:46:40.836Z,73.82
2018-04-30T08:49:09.092Z,73.25
2018-04-30T08:51:37.358Z,73.31
2018-04-30T08:54:05.676Z,72.35
2018-04-30T08:56:34.686Z,72.83
2018-04-30T08:59:02.940Z,70.61
2018-04-30T09:01:31.260Z,71.09
2018-04-30T09:03:59.524Z,70.57
2018-04-30T09:06:27.849Z,69.54
2018-04-30T09:08:56.853Z,69.67
2018-04-30T09:11:25.230Z,68.46
2018-04-30T09:13:54.278Z,67.38
2018-04-30T09:16:22.522Z,67.00
2018-04-30T09:18:51.661Z,65.63
2018-04-30T09:21:19.919Z,66.60
2018-04-30T09:23:49.040Z,66.66
2018-04-30T09:26:17.219Z,65.86
2018-04-30T09:28:46.229Z,66.26
2018-04-30T09:31:15.253Z,65.26
2018-04-30T09:33:43.541Z,65.67
2018-04-30T09:36:11.948Z,65.64
2018-04-30T09:38:40.231Z,64.96
2018-04-30T09:41:08.507Z,63.53
2018-04-30T09:43:37.540Z,63.72
2018-04-30T09:46:05.787Z,62.96
2018-04-30T09:48:34.810Z,61.07
2018-04-30T09:51:03.833Z,59.55
2018-04-30T09:53:32.092Z,59.52
2018-04-30T09:56:01.146Z,59.91
2018-04-30T09:58:29.391Z,60.14
2018-04-30T10:00:58.429Z,59.61
2018-04-30T10:03:26.817Z,59.53
2018-04-30T10:05:55.927Z,59.37
2018-04-30T10:08:24.194Z,57.59
2018-04-30T10:10:52.498Z,56.86
2018-04-30T10:13:20.796Z,54.97
2018-04-30T10:15:49.829Z,55.65
2018-04-30T10:18:18.129Z,56.56
2018-04-30T10:20:46.384Z,55.68
2018-04-30T10:23:14.677Z,54.09
2018-04-30T10:25:43.713Z,54.17
2018-04-30T10:28:12.068Z,55.31
2018-04-30T10:30:41.086Z,56.49
2018-04-30T10:33:10.149Z,56.37
2018-04-30T10:35:39.205Z,56.20
2018-04-30T10:38:07.546Z,56.78
2018-04-30T10:40:36.605Z,57.11
2018-04-30T10:43:04.889Z,57.86
2018-04-30T10:45:35.021Z,57.47
2018-04-30T10:48:03.314Z,58.09
2018-04-30T10:50:32.386Z,58.16
2018-04-30T10:53:00.716Z,57.77
2018-04-30T10:55:28.980Z,57.52
2018-04-30T10:57:57.996Z,58.08
2018-04-30T11:00:27.020Z,57.97
2018-04-30T11:02:55.307Z,57.84
2018-04-30T11:05:23.553Z,57.55
2018-04-30T11:07:51.888Z,57.15
2018-04-30T11:10:20.935Z,57.05
2018-04-30T11:12:49.292Z,57.14
2018-04-30T11:15:18.305Z,57.21
2018-04-30T11:17:46.574Z,57.66
2018-04-30T11:20:15.813Z,56.58
2018-04-30T11:22:44.241Z,56.47
2018-04-30T11:25:13.214Z,55.96
2018-04-30T11:27:41.481Z,55.20
2018-04-30T11:30:10.568Z,54.81
2018-04-30T11:32:39.709Z,55.07
2018-04-30T11:35:08.000Z,53.78
2018-04-30T11:37:36.265Z,53.43
2018-04-30T11:40:05.315Z,52.00
2018-04-30T11:42:33.579Z,50.77
2018-04-30T11:45:01.949Z,50.69
2018-04-30T11:47:30.980Z,51.53
2018-04-30T11:49:59.276Z,52.17
2018-04-30T11:52:27.518Z,52.45
2018-04-30T11:54:55.856Z,51.57
2018-04-30T11:57:24.112Z,52.34
2018-04-30T11:59:52.419Z,52.34
2018-04-30T12:02:21.460Z,50.95
2018-04-30T12:04:49.800Z,50.31
2018-04-30T12:07:17.976Z,49.50
2018-04-30T12:09:46.263Z,49.09
2018-04-30T12:12:14.528Z,51.13
2018-04-30T12:14:43.162Z,52.44
2018-04-30T12:17:11.450Z,55.50
2018-04-30T12:19:40.604Z,59.67
2018-04-30T12:22:09.139Z,62.80
2018-04-30T12:24:37.372Z,63.65
2018-04-30T12:27:05.662Z,63.06
2018-04-30T12:29:34.784Z,60.48
2018-04-30T12:32:03.175Z,59.98
2018-04-30T12:34:31.424Z,58.20
2018-04-30T12:36:59.679Z,58.78
2018-04-30T12:39:28.045Z,60.81
2018-04-30T12:41:57.093Z,62.95
2018-04-30T12:44:25.464Z,64.65
2018-04-30T12:46:53.940Z,65.08
2018-04-30T12:49:22.230Z,65.30
2018-04-30T12:51:50.464Z,66.07
2018-04-30T12:54:18.783Z,69.61
2018-04-30T12:56:47.126Z,70.14
2018-04-30T12:59:17.937Z,69.52
2018-04-30T13:01:47.062Z,67.93
2018-04-30T13:04:15.411Z,67.65
2018-04-30T13:06:43.688Z,66.60
2018-04-30T13:09:12.132Z,64.29
2018-04-30T13:11:40.431Z,62.98
2018-04-30T13:14:08.908Z,59.18
2018-04-30T13:16:38.385Z,57.37
2018-04-30T13:19:07.577Z,55.80
2018-04-30T13:21:36.253Z,54.86
2018-04-30T13:24:04.529Z,55.22
2018-04-30T13:26:33.544Z,55.58
2018-04-30T13:29:01.847Z,56.42
2018-04-30T13:31:30.111Z,58.42
2018-04-30T13:33:58.352Z,60.56
2018-04-30T13:36:26.627Z,64.58
2018-04-30T13:38:54.913Z,69.16
2018-04-30T13:41:23.160Z,71.33
2018-04-30T13:43:52.196Z,72.35
2018-04-30T13:46:21.305Z,71.17
2018-04-30T13:48:49.540Z,70.89
2018-04-30T13:51:17.854Z,67.70
2018-04-30T13:53:46.146Z,67.48
2018-04-30T13:56:14.468Z,65.27
2018-04-30T13:58:42.729Z,64.48
2018-04-30T14:01:11.970Z,62.04
2018-04-30T14:03:40.356Z,63.76
2018-04-30T14:06:08.656Z,62.04
2018-04-30T14:08:36.929Z,62.95
2018-04-30T14:11:05.978Z,62.14
2018-04-30T14:13:34.375Z,60.03
2018-04-30T14:16:02.738Z,58.72
2018-04-30T14:18:30.987Z,56.59
2018-04-30T14:20:59.316Z,56.79
2018-04-30T14:23:27.575Z,57.52
2018-04-30T14:25:55.846Z,54.80
2018-04-30T14:28:24.191Z,54.84
2018-04-30T14:30:52.514Z,52.36
2018-04-30T14:33:20.856Z,52.59
2018-04-30T14:35:49.889Z,52.76
2018-04-30T14:38:18.202Z,53.46
2018-04-30T14:40:47.276Z,53.27
2018-04-30T14:43:16.338Z,53.90
2018-04-30T14:45:44.607Z,53.95
2018-04-30T14:48:12.918Z,51.72
2018-04-30T14:50:41.994Z,51.41
2018-04-30T14:53:10.287Z,51.37
2018-04-30T14:55:38.786Z,50.81
2018-04-30T14:58:08.107Z,50.36
2018-04-30T15:00:36.458Z,51.13
2018-04-30T15:03:04.756Z,50.16
2018-04-30T15:05:33.004Z,49.92
2018-04-30T15:08:01.312Z,48.49
2018-04-30T15:10:30.346Z,49.48
2018-04-30T15:12:58.758Z,49.90
2018-04-30T15:15:27.025Z,50.05
2018-04-30T15:17:55.330Z,50.46
2018-04-30T15:20:23.710Z,49.90
2018-04-30T15:22:52.025Z,49.43
2018-04-30T15:25:20.319Z,50.17
2018-04-30T15:27:48.601Z,50.72
2018-04-30T15:30:16.885Z,50.91
2018-04-30T15:32:45.214Z,50.77
2018-04-30T15:35:13.501Z,51.25
2018-04-30T15:37:41.810Z,51.07
2018-04-30T15:40:10.196Z,49.78
2018-04-30T15:42:38.468Z,48.28
2018-04-30T15:45:06.828Z,48.47
2018-04-30T15:47:35.240Z,48.19
2018-04-30T15:50:03.514Z,47.24
2018-04-30T15:52:31.787Z,47.58
2018-04-30T15:55:00.102Z,48.45
2018-04-30T15:57:28.456Z,47.79
2018-04-30T15:59:57.487Z,47.57
2018-04-30T16:02:25.760Z,46.99
2018-04-30T16:04:54.262Z,46.33
2018-04-30T16:07:22.557Z,46.73
2018-04-30T16:09:51.459Z,46.25
2018-04-30T16:12:19.720Z,47.17
2018-04-30T16:14:48.759Z,47.87
2018-04-30T16:17:17.055Z,47.83
2018-04-30T16:19:45.313Z,48.23
2018-04-30T16:22:14.448Z,49.23
2018-04-30T16:24:43.674Z,49.46
2018-04-30T16:27:12.007Z,50.07
2018-04-30T16:29:40.355Z,50.44
2018-04-30T16:32:08.636Z,50.80
2018-04-30T16:34:36.994Z,49.87
2018-04-30T16:37:05.976Z,50.00
2018-04-30T16:39:35.759Z,49.40
2018-04-30T16:42:04.421Z,49.44
2018-04-30T16:44:33.565Z,49.49
2018-04-30T16:47:01.815Z,49.56
2018-04-30T16:49:31.481Z,49.09
2018-04-30T16:51:59.739Z,50.05
2018-04-30T16:54:28.815Z,49.15
2018-04-30T16:56:57.164Z,49.35
2018-04-30T16:59:25.457Z,49.35
2018-04-30T17:01:54.466Z,49.28
2018-04-30T17:04:22.773Z,50.25
2018-04-30T17:06:51.090Z,50.94
2018-04-30T17:09:19.341Z,51.59
2018-04-30T17:11:47.619Z,51.37
2018-04-30T17:14:15.978Z,50.55
2018-04-30T17:16:45.067Z,51.34
2018-04-30T17:19:13.417Z,50.85
2018-04-30T17:21:42.461Z,51.10
2018-04-30T17:24:10.744Z,50.31
2018-04-30T17:26:39.010Z,51.07
2018-04-30T17:29:07.269Z,50.82
2018-04-30T17:31:35.567Z,51.25
2018-04-30T17:34:04.755Z,51.23
2018-04-30T17:36:33.096Z,51.63
2018-04-30T17:39:01.269Z,52.10
2018-04-30T17:41:30.283Z,51.04
2018-04-30T17:43:58.576Z,50.65
2018-04-30T17:46:26.890Z,50.62
2018-04-30T17:48:55.193Z,51.34
2018-04-30T17:51:23.460Z,51.91
2018-04-30T17:53:51.711Z,53.03
2018-04-30T17:56:20.863Z,53.79
2018-04-30T17:58:49.164Z,54.41
2018-04-30T18:01:17.419Z,53.09
2018-04-30T18:03:46.428Z,51.97
2018-04-30T18:06:14.696Z,52.41
2018-04-30T18:08:43.729Z,53.33
2018-04-30T18:11:11.999Z,52.97
2018-04-30T18:13:40.336Z,52.48
2018-04-30T18:16:08.629Z,52.26
2018-04-30T18:18:37.703Z,52.42
2018-04-30T18:21:06.453Z,52.42
2018-04-30T18:23:34.830Z,51.68
2018-04-30T18:26:03.087Z,51.66
2018-04-30T18:28:31.382Z,52.31
2018-04-30T18:30:59.671Z,52.12
2018-04-30T18:33:28.187Z,51.80
2018-04-30T18:35:57.450Z,51.85
2018-04-30T18:38:30.517Z,52.26
2018-04-30T18:40:59.079Z,52.68
2018-04-30T18:43:27.365Z,53.40
2018-04-30T18:45:55.655Z,53.01
2018-04-30T18:48:24.689Z,53.49
2018-04-30T18:50:52.963Z,53.88
2018-04-30T18:53:21.229Z,53.41
2018-04-30T18:55:50.277Z,53.04
2018-04-30T18:58:18.625Z,53.04
2018-04-30T19:00:47.661Z,53.28
2018-04-30T19:03:16.019Z,53.76
2018-04-30T19:05:44.280Z,53.38
2018-04-30T19:08:12.609Z,54.30
2018-04-30T19:10:41.643Z,55.56
2018-04-30T19:13:10.038Z,54.66
2018-04-30T19:15:38.317Z,54.11
2018-04-30T19:18:06.580Z,55.47
2018-04-30T19:20:35.617Z,55.89
2018-04-30T19:23:03.902Z,56.71
2018-04-30T19:25:33.004Z,57.05
2018-04-30T19:28:02.028Z,58.64
2018-04-30T19:30:30.287Z,60.97
2018-04-30T19:32:59.428Z,61.27
2018-04-30T19:35:28.434Z,61.39
2018-04-30T19:37:57.464Z,61.78
2018-04-30T19:40:25.925Z,61.89
2018-04-30T19:42:54.949Z,62.23
2018-04-30T19:45:23.232Z,62.31
2018-04-30T19:47:52.253Z,63.95
2018-04-30T19:50:22.584Z,64.47
2018-04-30T19:52:50.913Z,63.89
2018-04-30T19:55:19.137Z,64.44
2018-04-30T19:57:47.381Z,63.34
2018-04-30T20:00:15.656Z,63.76
2018-04-30T20:02:44.036Z,64.35
2018-04-30T20:05:12.334Z,65.11
2018-04-30T20:07:40.623Z,66.90
2018-04-30T20:10:08.915Z,68.88
2018-04-30T20:12:37.163Z,66.98
2018-04-30T20:15:06.223Z,69.35
2018-04-30T20:17:34.590Z,69.24
2018-04-30T20:20:02.834Z,69.96
2018-04-30T20:22:31.877Z,69.91
2018-04-30T20:25:01.004Z,71.23
2018-04-30T20:27:29.271Z,68.20
2018-04-30T20:29:58.508Z,68.72
2018-04-30T20:32:26.771Z,67.95
2018-04-30T20:34:55.780Z,66.94
2018-04-30T20:37:24.804Z,65.54
2018-04-30T20:39:54.187Z,66.47
2018-04-30T20:42:22.426Z,63.94
2018-04-30T20:44:50.705Z,62.94
2018-04-30T20:47:18.963Z,63.76
2018-04-30T20:49:47.219Z,62.54
2018-04-30T20:52:15.597Z,63.04
2018-04-30T20:54:44.049Z,63.08
2018-04-30T20:57:12.341Z,64.52
2018-04-30T20:59:40.599Z,64.45
2018-04-30T21:02:08.949Z,63.18
2018-04-30T21:04:37.186Z,63.23
2018-04-30T21:07:05.525Z,63.96
2018-04-30T21:09:34.545Z,63.73
2018-04-30T21:12:02.817Z,64.27
2018-04-30T21:14:31.094Z,63.32
2018-04-30T21:17:00.107Z,63.64
2018-04-30T21:19:29.438Z,63.93
2018-04-30T21:21:57.718Z,63.74
2018-04-30T21:24:27.021Z,63.85
2018-04-30T21:29:52.401Z,63.97
2018-04-30T21:32:21.613Z,64.59
2018-04-30T21:34:49.904Z,64.14
2018-04-30T21:37:18.179Z,64.88
2018-04-30T21:39:47.189Z,65.54
2018-04-30T21:42:16.291Z,65.42
2018-04-30T21:44:45.306Z,66.34
2018-04-30T21:47:13.588Z,66.95
2018-04-30T21:49:41.845Z,66.88
2018-04-30T21:52:10.098Z,67.73
2018-04-30T21:54:38.485Z,67.66
2018-04-30T21:57:06.718Z,67.53
2018-04-30T21:59:34.998Z,67.35
2018-04-30T22:02:03.244Z,67.34
2018-04-30T22:04:31.545Z,67.58
2018-04-30T22:06:59.809Z,67.86
2018-04-30T22:09:28.821Z,68.11
2018-04-30T22:11:57.843Z,68.99
2018-04-30T22:14:26.122Z,68.75
2018-04-30T22:16:55.139Z,69.05
2018-04-30T22:19:23.396Z,69.11
2018-04-30T22:21:51.639Z,70.13
2018-04-30T22:24:19.914Z,71.00
2018-04-30T22:26:48.143Z,71.42
2018-04-30T22:29:16.408Z,71.60
2018-04-30T22:31:44.648Z,72.83
2018-04-30T22:34:12.920Z,72.91
2018-04-30T22:36:41.279Z,72.81
2018-04-30T22:39:09.457Z,72.75
2018-04-30T22:41:37.800Z,73.88
2018-04-30T22:44:06.100Z,72.45
2018-04-30T22:46:35.109Z,72.87
2018-04-30T22:49:04.119Z,72.49
2018-04-30T22:51:33.166Z,72.20
2018-04-30T22:54:01.437Z,71.98
2018-04-30T22:56:30.433Z,72.57
2018-04-30T22:58:59.462Z,72.48
2018-04-30T23:01:27.696Z,73.41
2018-04-30T23:03:55.943Z,73.05
2018-04-30T23:06:24.203Z,73.50
2018-04-30T23:08:53.211Z,73.19
2018-04-30T23:11:22.218Z,73.32
2018-04-30T23:13:51.265Z,73.91
2018-04-30T23:16:19.522Z,74.31
2018-04-30T23:21:15.317Z,75.62
2018-04-30T23:23:43.572Z,76.39
2018-04-30T23:26:12.592Z,76.69
2018-04-30T23:28:40.891Z,76.26
2018-04-30T23:31:09.150Z,76.46
2018-04-30T23:33:37.375Z,76.48
2018-04-30T23:36:05.771Z,77.05
2018-04-30T23:38:34.000Z,78.24
2018-04-30T23:41:02.251Z,77.97
2018-04-30T23:43:30.541Z,78.73
2018-04-30T23:45:58.804Z,78.34
2018-04-30T23:48:27.830Z,78.21
2018-04-30T23:50:56.136Z,79.07
2018-04-30T23:53:24.395Z,79.87
2018-04-30T23:55:53.401Z,79.66
2018-04-30T23:58:22.432Z,80.21
